createdAt,value
2023-03-07T06:02:46.391Z,5.34
2023-03-07T06:05:16.437Z,5.32
2023-03-07T06:07:53.360Z,5.27
2023-03-07T06:10:23.740Z,5.20
2023-03-07T06:13:00.365Z,5.20
2023-03-07T06:15:30.557Z,5.17
2023-03-07T06:18:09.345Z,5.14
2023-03-07T06:20:39.831Z,5.11
2023-03-07T06:23:16.329Z,5.10
2023-03-07T06:25:46.449Z,5.10
2023-03-07T06:28:23.423Z,5.09
2023-03-07T06:30:53.465Z,5.07
2023-03-07T06:33:32.399Z,5.04
2023-03-07T06:36:02.542Z,5.00
2023-03-07T06:38:39.449Z,4.99
2023-03-07T06:41:09.875Z,5.00
2023-03-07T06:43:47.400Z,4.96
2023-03-07T06:46:18.275Z,4.90
2023-03-07T06:48:58.381Z,4.90
2023-03-07T06:51:28.395Z,4.90
2023-03-07T06:54:05.492Z,4.88
2023-03-07T06:56:35.963Z,4.84
2023-03-07T06:59:12.403Z,4.81
2023-03-07T07:01:42.439Z,4.79
2023-03-07T07:04:21.413Z,4.79
2023-03-07T07:06:51.675Z,4.77
2023-03-07T07:09:28.450Z,4.79
2023-03-07T07:11:58.490Z,4.81
2023-03-07T07:14:35.503Z,4.79
2023-03-07T07:17:05.566Z,4.76
2023-03-07T07:19:45.447Z,4.79
2023-03-07T07:22:16.027Z,4.81
2023-03-07T07:24:52.478Z,4.79
2023-03-07T07:27:22.717Z,4.80
2023-03-07T07:29:59.457Z,4.83
2023-03-07T07:32:36.662Z,4.84
2023-03-07T07:35:11.032Z,4.86
2023-03-07T07:37:48.452Z,4.88
2023-03-07T07:40:18.764Z,4.91
2023-03-07T07:43:01.460Z,4.95
2023-03-07T07:45:31.554Z,4.96
2023-03-07T07:48:08.507Z,5.00
2023-03-07T07:50:41.339Z,5.02
2023-03-07T07:53:17.524Z,5.04
2023-03-07T07:55:49.091Z,5.02
2023-03-07T07:58:25.487Z,5.03
2023-03-07T08:00:55.801Z,5.04
2023-03-07T08:03:32.583Z,5.03
2023-03-07T08:06:05.469Z,5.04
2023-03-07T08:08:42.524Z,5.04
2023-03-07T08:11:12.552Z,5.02
2023-03-07T08:13:49.515Z,5.04
2023-03-07T08:16:22.731Z,5.07
2023-03-07T08:19:02.531Z,5.11
2023-03-07T08:21:35.208Z,5.10
2023-03-07T08:24:11.566Z,5.11
2023-03-07T08:26:41.732Z,5.10
2023-03-07T08:29:18.541Z,5.11
2023-03-07T08:31:51.312Z,5.16
2023-03-07T08:34:27.533Z,5.18
2023-03-07T08:37:06.577Z,5.22
2023-03-07T08:39:36.595Z,5.24
2023-03-07T08:42:13.585Z,5.23
2023-03-07T08:44:43.736Z,5.29
2023-03-07T08:47:20.700Z,5.29
2023-03-07T08:49:50.686Z,5.34
2023-03-07T08:52:29.563Z,5.33
2023-03-07T08:54:59.565Z,5.36
2023-03-07T08:57:36.578Z,5.32
2023-03-07T09:00:10.039Z,5.35
2023-03-07T09:02:46.591Z,5.37
2023-03-07T09:05:16.635Z,5.37
2023-03-07T09:07:55.521Z,5.45
2023-03-07T09:10:27.347Z,5.52
2023-03-07T09:13:03.533Z,5.55
2023-03-07T09:15:33.631Z,5.66
2023-03-07T09:18:10.666Z,5.79
2023-03-07T09:20:41.882Z,5.91
2023-03-07T09:23:21.604Z,6.00
2023-03-07T09:25:51.631Z,6.13
2023-03-07T09:28:28.618Z,6.23
2023-03-07T09:30:58.731Z,6.29
2023-03-07T09:33:35.562Z,6.39
2023-03-07T09:36:08.387Z,6.46
2023-03-07T09:38:48.572Z,6.59
2023-03-07T09:41:42.731Z,6.64
2023-03-07T09:44:30.594Z,6.70
2023-03-07T09:47:21.578Z,6.72
2023-03-07T09:49:56.965Z,6.75
2023-03-07T09:52:38.623Z,6.80
2023-03-07T09:55:18.050Z,6.81
2023-03-07T09:57:59.864Z,6.82
2023-03-07T10:00:36.202Z,6.85
2023-03-07T10:03:25.754Z,6.94
2023-03-07T10:06:00.263Z,6.93
2023-03-07T10:08:41.923Z,6.92
2023-03-07T10:11:31.837Z,6.86
2023-03-07T10:14:32.735Z,6.97
2023-03-07T10:17:16.857Z,7.07
2023-03-07T10:22:50.791Z,7.22
2023-03-07T10:25:35.772Z,7.30
2023-03-07T10:28:21.981Z,7.28
2023-03-07T10:31:00.702Z,7.32
2023-03-07T10:33:33.377Z,7.27
2023-03-07T10:36:19.997Z,7.13
2023-03-07T10:39:10.667Z,6.92
2023-03-07T10:41:40.787Z,6.85
2023-03-07T10:44:26.653Z,6.77
2023-03-07T10:47:01.156Z,6.68
2023-03-07T10:49:43.711Z,6.66
2023-03-07T10:52:33.774Z,6.70
2023-03-07T10:55:45.917Z,6.67
2023-03-07T10:58:31.593Z,6.70
2023-03-07T11:01:28.697Z,6.71
2023-03-07T11:04:05.234Z,6.70
2023-03-07T11:06:45.740Z,6.76
2023-03-07T11:09:25.422Z,6.74
2023-03-07T11:12:19.752Z,6.77
2023-03-07T11:14:54.464Z,6.78
2023-03-07T11:17:38.694Z,6.81
2023-03-07T11:20:25.482Z,6.83
2023-03-07T11:23:32.535Z,6.85
2023-03-07T11:26:25.407Z,6.90
2023-03-07T11:29:15.748Z,6.97
2023-03-07T11:32:06.421Z,7.08
2023-03-07T11:34:52.791Z,7.15
2023-03-07T11:37:33.442Z,7.18
2023-03-07T11:40:32.826Z,7.16
2023-03-07T11:43:17.558Z,7.21
2023-03-07T11:46:03.829Z,7.34
2023-03-07T11:49:00.764Z,7.38
2023-03-07T11:51:54.334Z,7.25
2023-03-07T11:54:40.790Z,7.07
2023-03-07T11:57:32.820Z,6.79
2023-03-07T12:00:28.534Z,6.60
2023-03-07T12:03:31.788Z,6.37
2023-03-07T12:06:27.279Z,6.24
2023-03-07T12:09:37.767Z,6.16
2023-03-07T12:12:40.623Z,6.04
2023-03-07T12:15:49.806Z,6.02
2023-03-07T12:18:55.780Z,6.05
2023-03-07T12:21:58.785Z,6.08
2023-03-07T12:24:38.358Z,6.18
2023-03-07T12:27:26.695Z,6.22
2023-03-07T12:30:01.406Z,6.25
2023-03-07T12:32:40.065Z,6.31
2023-03-07T12:35:21.064Z,6.28
2023-03-07T12:38:02.958Z,6.31
2023-03-07T12:40:42.819Z,6.29
2023-03-07T12:43:29.837Z,6.39
2023-03-07T12:46:12.227Z,6.47
2023-03-07T12:48:55.836Z,6.53
2023-03-07T12:51:34.239Z,6.57
2023-03-07T12:54:19.893Z,6.63
2023-03-07T12:56:59.393Z,6.62
2023-03-07T12:59:38.850Z,6.65
2023-03-07T13:02:19.264Z,6.59
2023-03-07T13:04:55.852Z,6.59
2023-03-07T13:07:29.920Z,6.52
2023-03-07T13:10:10.049Z,6.56
2023-03-07T13:12:42.697Z,6.55
2023-03-07T13:16:10.975Z,6.47
2023-03-07T13:18:41.643Z,6.49
2023-03-07T13:21:40.871Z,6.43
2023-03-07T13:24:37.768Z,6.47
2023-03-07T13:27:23.846Z,6.56
2023-03-07T13:30:30.910Z,6.58
2023-03-07T13:33:03.115Z,6.68
2023-03-07T13:36:02.905Z,6.68
2023-03-07T13:38:44.180Z,6.70
2023-03-07T13:41:22.875Z,6.73
2023-03-07T13:44:04.695Z,6.73
2023-03-07T13:47:04.885Z,6.74
2023-03-07T13:49:44.079Z,6.77
2023-03-07T13:52:49.964Z,6.70
2023-03-07T13:55:27.624Z,6.71
2023-03-07T13:58:10.941Z,6.68
